sensor_id;sensor_type;location;lat;lon;timestamp;pressure;altitude;pressure_sealevel;temperature;humidity
15750;BME280;7976;52.526;13.326;2023-12-07T00:02:17;101258.31;;;2.73;100.00
15750;BME280;7976;52.526;13.326;2023-12-07T00:04:44;101272.09;;;2.74;100.00
15750;BME280;7976;52.526;13.326;2023-12-07T00:07:11;101277.25;;;2.72;100.00
15750;BME280;7976;52.526;13.326;2023-12-07T00:09:37;101263.47;;;2.72;100.00
15750;BME280;7976;52.526;13.326;2023-12-07T00:12:05;101269.50;;;2.69;100.00
15750;BME280;7976;52.526;13.326;2023-12-07T00:14:32;101271.22;;;2.67;100.00
15750;BME280;7976;52.526;13.326;2023-12-07T00:16:59;101260.88;;;2.67;100.00
15750;BME280;7976;52.526;13.326;2023-12-07T00:19:27;101265.22;;;2.70;100.00
15750;BME280;7976;52.526;13.326;2023-12-07T00:21:54;101260.91;;;2.73;100.00
15750;BME280;7976;52.526;13.326;2023-12-07T00:24:21;101256.59;;;2.72;100.00
15750;BME280;7976;52.526;13.326;2023-12-07T00:26:48;101260.06;;;2.76;100.00
15750;BME280;7976;52.526;13.326;2023-12-07T00:29:15;101267.81;;;2.80;100.00
15750;BME280;7976;52.526;13.326;2023-12-07T00:31:42;101271.25;;;2.78;100.00
15750;BME280;7976;52.526;13.326;2023-12-07T00:34:09;101261.78;;;2.77;100.00
15750;BME280;7976;52.526;13.326;2023-12-07T00:36:37;101270.38;;;2.79;100.00
15750;BME280;7976;52.526;13.326;2023-12-07T00:39:06;101274.69;;;2.75;100.00
15750;BME280;7976;52.526;13.326;2023-12-07T00:41:33;101276.44;;;2.76;100.00
15750;BME280;7976;52.526;13.326;2023-12-07T00:44:00;101277.28;;;2.77;100.00
15750;BME280;7976;52.526;13.326;2023-12-07T00:46:27;101272.97;;;2.77;100.00
15750;BME280;7976;52.526;13.326;2023-12-07T00:48:54;101272.13;;;2.80;100.00
15750;BME280;7976;52.526;13.326;2023-12-07T00:51:20;101278.16;;;2.82;100.00
15750;BME280;7976;52.526;13.326;2023-12-07T00:53:48;101274.72;;;2.83;100.00
15750;BME280;7976;52.526;13.326;2023-12-07T00:56:15;101280.72;;;2.79;100.00
15750;BME280;7976;52.526;13.326;2023-12-07T00:58:42;101279.00;;;2.76;100.00
15750;BME280;7976;52.526;13.326;2023-12-07T01:01:09;101286.75;;;2.79;100.00
15750;BME280;7976;52.526;13.326;2023-12-07T01:03:35;101286.75;;;2.78;100.00
15750;BME280;7976;52.526;13.326;2023-12-07T01:06:03;101303.09;;;2.77;100.00
15750;BME280;7976;52.526;13.326;2023-12-07T01:08:30;101301.38;;;2.77;100.00
15750;BME280;7976;52.526;13.326;2023-12-07T01:10:58;101310.88;;;2.80;100.00
15750;BME280;7976;52.526;13.326;2023-12-07T01:13:25;101315.19;;;2.81;100.00
15750;BME280;7976;52.526;13.326;2023-12-07T01:15:52;101316.06;;;2.83;100.00
15750;BME280;7976;52.526;13.326;2023-12-07T01:18:19;101313.47;;;2.83;100.00
15750;BME280;7976;52.526;13.326;2023-12-07T01:20:46;101326.41;;;2.83;100.00
15750;BME280;7976;52.526;13.326;2023-12-07T01:23:13;101327.22;;;2.83;100.00
15750;BME280;7976;52.526;13.326;2023-12-07T01:25:40;101321.22;;;2.81;100.00
15750;BME280;7976;52.526;13.326;2023-12-07T01:28:08;101321.22;;;2.81;100.00
15750;BME280;7976;52.526;13.326;2023-12-07T01:30:35;101325.53;;;2.85;100.00
15750;BME280;7976;52.526;13.326;2023-12-07T01:33:03;101327.22;;;2.79;100.00
15750;BME280;7976;52.526;13.326;2023-12-07T01:35:29;101340.13;;;2.76;100.00
15750;BME280;7976;52.526;13.326;2023-12-07T01:37:56;101340.13;;;2.79;100.00
15750;BME280;7976;52.526;13.326;2023-12-07T01:40:23;101351.34;;;2.81;100.00
15750;BME280;7976;52.526;13.326;2023-12-07T01:42:51;101354.81;;;2.81;100.00
15750;BME280;7976;52.526;13.326;2023-12-07T01:45:19;101345.31;;;2.80;100.00
15750;BME280;7976;52.526;13.326;2023-12-07T01:47:49;101353.94;;;2.78;100.00
15750;BME280;7976;52.526;13.326;2023-12-07T01:50:17;101351.34;;;2.78;100.00
15750;BME280;7976;52.526;13.326;2023-12-07T01:52:54;101352.19;;;2.78;100.00
15750;BME280;7976;52.526;13.326;2023-12-07T01:55:23;101352.19;;;2.75;100.00
15750;BME280;7976;52.526;13.326;2023-12-07T01:57:50;101349.59;;;2.74;100.00
15750;BME280;7976;52.526;13.326;2023-12-07T02:00:19;101341.00;;;2.75;100.00
15750;BME280;7976;52.526;13.326;2023-12-07T02:02:47;101352.19;;;2.74;100.00
15750;BME280;7976;52.526;13.326;2023-12-07T02:05:14;101352.19;;;2.72;100.00
15750;BME280;7976;52.526;13.326;2023-12-07T02:07:41;101360.78;;;2.74;100.00
15750;BME280;7976;52.526;13.326;2023-12-07T02:10:09;101352.19;;;2.72;100.00
15750;BME280;7976;52.526;13.326;2023-12-07T02:12:36;101358.22;;;2.73;100.00
15750;BME280;7976;52.526;13.326;2023-12-07T02:15:04;101357.34;;;2.71;100.00
15750;BME280;7976;52.526;13.326;2023-12-07T02:17:39;101354.75;;;2.71;100.00
15750;BME280;7976;52.526;13.326;2023-12-07T02:20:16;101353.88;;;2.73;100.00
15750;BME280;7976;52.526;13.326;2023-12-07T02:22:53;101351.31;;;2.72;100.00
15750;BME280;7976;52.526;13.326;2023-12-07T02:25:31;101350.47;;;2.71;100.00
15750;BME280;7976;52.526;13.326;2023-12-07T02:28:03;101356.47;;;2.72;100.00
15750;BME280;7976;52.526;13.326;2023-12-07T02:30:30;101353.03;;;2.71;100.00
15750;BME280;7976;52.526;13.326;2023-12-07T02:32:57;101359.91;;;2.71;100.00
15750;BME280;7976;52.526;13.326;2023-12-07T02:35:25;101359.91;;;2.71;100.00
15750;BME280;7976;52.526;13.326;2023-12-07T02:37:53;101364.22;;;2.72;100.00
15750;BME280;7976;52.526;13.326;2023-12-07T02:40:23;101366.78;;;2.72;100.00
15750;BME280;7976;52.526;13.326;2023-12-07T02:42:52;101368.53;;;2.73;100.00
15750;BME280;7976;52.526;13.326;2023-12-07T02:45:21;101371.13;;;2.76;100.00
15750;BME280;7976;52.526;13.326;2023-12-07T02:47:48;101370.25;;;2.75;100.00
15750;BME280;7976;52.526;13.326;2023-12-07T02:50:15;101375.44;;;2.77;100.00
15750;BME280;7976;52.526;13.326;2023-12-07T02:52:42;101372.84;;;2.75;100.00
15750;BME280;7976;52.526;13.326;2023-12-07T02:55:08;101378.00;;;2.74;100.00
15750;BME280;7976;52.526;13.326;2023-12-07T02:57:35;101371.13;;;2.70;100.00
15750;BME280;7976;52.526;13.326;2023-12-07T03:00:03;101377.09;;;2.63;100.00
15750;BME280;7976;52.526;13.326;2023-12-07T03:02:33;101386.56;;;2.59;100.00
15750;BME280;7976;52.526;13.326;2023-12-07T03:05:00;101386.53;;;2.58;100.00
15750;BME280;7976;52.526;13.326;2023-12-07T03:07:27;101386.50;;;2.54;100.00
15750;BME280;7976;52.526;13.326;2023-12-07T03:09:54;101384.78;;;2.53;100.00
15750;BME280;7976;52.526;13.326;2023-12-07T03:12:21;101390.81;;;2.54;100.00
15750;BME280;7976;52.526;13.326;2023-12-07T03:14:48;101391.66;;;2.50;100.00
15750;BME280;7976;52.526;13.326;2023-12-07T03:17:15;101392.50;;;2.47;100.00
15750;BME280;7976;52.526;13.326;2023-12-07T03:19:44;101389.94;;;2.50;100.00
15750;BME280;7976;52.526;13.326;2023-12-07T03:22:10;101397.69;;;2.50;100.00
15750;BME280;7976;52.526;13.326;2023-12-07T03:24:40;101395.97;;;2.51;100.00
15750;BME280;7976;52.526;13.326;2023-12-07T03:27:07;101399.38;;;2.45;100.00
15750;BME280;7976;52.526;13.326;2023-12-07T03:29:34;101399.38;;;2.44;100.00
15750;BME280;7976;52.526;13.326;2023-12-07T03:32:00;101403.69;;;2.46;100.00
15750;BME280;7976;52.526;13.326;2023-12-07T03:34:27;101395.94;;;2.49;100.00
15750;BME280;7976;52.526;13.326;2023-12-07T03:36:56;101396.88;;;2.56;100.00
15750;BME280;7976;52.526;13.326;2023-12-07T03:39:22;101407.22;;;2.62;100.00
15750;BME280;7976;52.526;13.326;2023-12-07T03:41:51;101405.53;;;2.66;100.00
15750;BME280;7976;52.526;13.326;2023-12-07T03:44:17;101415.03;;;2.70;100.00
15750;BME280;7976;52.526;13.326;2023-12-07T03:46:44;101414.16;;;2.72;100.00
15750;BME280;7976;52.526;13.326;2023-12-07T03:49:11;101414.16;;;2.69;100.00
15750;BME280;7976;52.526;13.326;2023-12-07T03:51:38;101417.56;;;2.65;100.00
15750;BME280;7976;52.526;13.326;2023-12-07T03:54:06;101417.56;;;2.65;100.00
15750;BME280;7976;52.526;13.326;2023-12-07T03:56:33;101421.88;;;2.65;100.00
15750;BME280;7976;52.526;13.326;2023-12-07T03:59:00;101412.38;;;2.62;100.00
15750;BME280;7976;52.526;13.326;2023-12-07T04:01:28;101408.94;;;2.63;100.00
15750;BME280;7976;52.526;13.326;2023-12-07T04:03:57;101406.41;;;2.65;100.00
15750;BME280;7976;52.526;13.326;2023-12-07T04:06:25;101408.13;;;2.69;100.00
15750;BME280;7976;52.526;13.326;2023-12-07T04:08:51;101408.13;;;2.69;100.00
15750;BME280;7976;52.526;13.326;2023-12-07T04:11:20;101409.81;;;2.68;100.00
15750;BME280;7976;52.526;13.326;2023-12-07T04:13:48;101415.88;;;2.69;100.00
15750;BME280;7976;52.526;13.326;2023-12-07T04:16:14;101423.63;;;2.69;100.00
15750;BME280;7976;52.526;13.326;2023-12-07T04:18:42;101415.00;;;2.67;100.00
15750;BME280;7976;52.526;13.326;2023-12-07T04:21:09;101416.72;;;2.65;100.00
15750;BME280;7976;52.526;13.326;2023-12-07T04:23:35;101415.84;;;2.63;100.00
15750;BME280;7976;52.526;13.326;2023-12-07T04:26:03;101409.78;;;2.56;100.00
15750;BME280;7976;52.526;13.326;2023-12-07T04:28:31;101427.00;;;2.58;100.00
15750;BME280;7976;52.526;13.326;2023-12-07T04:31:01;101424.38;;;2.52;100.00
15750;BME280;7976;52.526;13.326;2023-12-07T04:33:28;101439.03;;;2.53;100.00
15750;BME280;7976;52.526;13.326;2023-12-07T04:35:55;101442.47;;;2.51;100.00
15750;BME280;7976;52.526;13.326;2023-12-07T04:38:22;101441.56;;;2.47;100.00
15750;BME280;7976;52.526;13.326;2023-12-07T04:40:49;101442.41;;;2.46;100.00
15750;BME280;7976;52.526;13.326;2023-12-07T04:43:16;101435.47;;;2.39;100.00
15750;BME280;7976;52.526;13.326;2023-12-07T04:45:44;101453.59;;;2.45;100.00
15750;BME280;7976;52.526;13.326;2023-12-07T04:48:11;101457.91;;;2.48;100.00
15750;BME280;7976;52.526;13.326;2023-12-07T04:50:38;101457.88;;;2.43;100.00
15750;BME280;7976;52.526;13.326;2023-12-07T04:53:05;101458.75;;;2.44;100.00
15750;BME280;7976;52.526;13.326;2023-12-07T04:55:32;101461.34;;;2.45;100.00
15750;BME280;7976;52.526;13.326;2023-12-07T04:57:59;101460.50;;;2.49;100.00
15750;BME280;7976;52.526;13.326;2023-12-07T05:00:26;101454.50;;;2.50;100.00
15750;BME280;7976;52.526;13.326;2023-12-07T05:02:54;101451.91;;;2.52;100.00
15750;BME280;7976;52.526;13.326;2023-12-07T05:05:21;101453.69;;;2.56;100.00
15750;BME280;7976;52.526;13.326;2023-12-07T05:07:50;101457.97;;;2.55;100.00
15750;BME280;7976;52.526;13.326;2023-12-07T05:10:17;101462.25;;;2.55;100.00
15750;BME280;7976;52.526;13.326;2023-12-07T05:12:46;101454.50;;;2.50;100.00
15750;BME280;7976;52.526;13.326;2023-12-07T05:15:14;101450.16;;;2.49;100.00
15750;BME280;7976;52.526;13.326;2023-12-07T05:17:41;101450.16;;;2.48;100.00
15750;BME280;7976;52.526;13.326;2023-12-07T05:20:10;101459.66;;;2.50;100.00
15750;BME280;7976;52.526;13.326;2023-12-07T05:22:38;101455.41;;;2.55;100.00
15750;BME280;7976;52.526;13.326;2023-12-07T05:25:06;101464.06;;;2.64;100.00
15750;BME280;7976;52.526;13.326;2023-12-07T05:27:34;101465.81;;;2.65;100.00
15750;BME280;7976;52.526;13.326;2023-12-07T05:30:01;101469.25;;;2.68;100.00
15750;BME280;7976;52.526;13.326;2023-12-07T05:32:27;101465.81;;;2.68;100.00
15750;BME280;7976;52.526;13.326;2023-12-07T05:34:54;101470.09;;;2.67;100.00
15750;BME280;7976;52.526;13.326;2023-12-07T05:37:23;101457.19;;;2.67;100.00
15750;BME280;7976;52.526;13.326;2023-12-07T05:39:50;101456.31;;;2.67;100.00
15750;BME280;7976;52.526;13.326;2023-12-07T05:42:17;101466.72;;;2.74;100.00
15750;BME280;7976;52.526;13.326;2023-12-07T05:44:44;101459.84;;;2.75;100.00
15750;BME280;7976;52.526;13.326;2023-12-07T05:47:11;101466.72;;;2.77;100.00
15750;BME280;7976;52.526;13.326;2023-12-07T05:49:38;101471.03;;;2.78;100.00
15750;BME280;7976;52.526;13.326;2023-12-07T05:52:05;101463.25;;;2.77;100.00
15750;BME280;7976;52.526;13.326;2023-12-07T05:54:34;101470.19;;;2.78;100.00
15750;BME280;7976;52.526;13.326;2023-12-07T05:57:01;101468.47;;;2.80;100.00
15750;BME280;7976;52.526;13.326;2023-12-07T05:59:28;101467.59;;;2.79;100.00
15750;BME280;7976;52.526;13.326;2023-12-07T06:01:55;101467.59;;;2.78;100.00
15750;BME280;7976;52.526;13.326;2023-12-07T06:04:22;101465.84;;;2.75;100.00
15750;BME280;7976;52.526;13.326;2023-12-07T06:06:49;101474.47;;;2.76;100.00
15750;BME280;7976;52.526;13.326;2023-12-07T06:09:17;101484.81;;;2.80;100.00
15750;BME280;7976;52.526;13.326;2023-12-07T06:11:45;101488.25;;;2.78;100.00
15750;BME280;7976;52.526;13.326;2023-12-07T06:14:12;101484.78;;;2.73;100.00
15750;BME280;7976;52.526;13.326;2023-12-07T06:16:39;101490.78;;;2.72;99.87
15750;BME280;7976;52.526;13.326;2023-12-07T06:19:06;101480.44;;;2.69;100.00
15750;BME280;7976;52.526;13.326;2023-12-07T06:21:36;101477.00;;;2.68;100.00
15750;BME280;7976;52.526;13.326;2023-12-07T06:24:04;101493.38;;;2.70;100.00
15750;BME280;7976;52.526;13.326;2023-12-07T06:26:32;101494.22;;;2.65;99.81
15750;BME280;7976;52.526;13.326;2023-12-07T06:29:02;101497.63;;;2.62;100.00
15750;BME280;7976;52.526;13.326;2023-12-07T06:31:29;101513.94;;;2.58;99.86
15750;BME280;7976;52.526;13.326;2023-12-07T06:33:59;101510.47;;;2.54;99.92
15750;BME280;7976;52.526;13.326;2023-12-07T06:36:27;101516.50;;;2.53;100.00
15750;BME280;7976;52.526;13.326;2023-12-07T06:38:54;101516.47;;;2.52;100.00
15750;BME280;7976;52.526;13.326;2023-12-07T06:41:21;101518.22;;;2.54;100.00
15750;BME280;7976;52.526;13.326;2023-12-07T06:43:48;101519.06;;;2.53;100.00
15750;BME280;7976;52.526;13.326;2023-12-07T06:46:17;101527.72;;;2.58;100.00
15750;BME280;7976;52.526;13.326;2023-12-07T06:48:44;101525.13;;;2.58;100.00
15750;BME280;7976;52.526;13.326;2023-12-07T06:51:11;101530.31;;;2.58;99.86
15750;BME280;7976;52.526;13.326;2023-12-07T06:53:41;101530.31;;;2.58;99.77
15750;BME280;7976;52.526;13.326;2023-12-07T06:56:09;101529.41;;;2.56;99.62
15750;BME280;7976;52.526;13.326;2023-12-07T06:58:41;101517.34;;;2.52;99.60
15750;BME280;7976;52.526;13.326;2023-12-07T07:01:08;101526.00;;;2.56;99.67
15750;BME280;7976;52.526;13.326;2023-12-07T07:03:39;101520.78;;;2.51;99.46
15750;BME280;7976;52.526;13.326;2023-12-07T07:06:07;101533.69;;;2.51;99.29
15750;BME280;7976;52.526;13.326;2023-12-07T07:08:36;101525.09;;;2.52;99.67
15750;BME280;7976;52.526;13.326;2023-12-07T07:11:11;101527.72;;;2.60;99.69
15750;BME280;7976;52.526;13.326;2023-12-07T07:13:38;101535.50;;;2.62;99.87
15750;BME280;7976;52.526;13.326;2023-12-07T07:16:08;101541.56;;;2.67;99.80
15750;BME280;7976;52.526;13.326;2023-12-07T07:18:39;101546.72;;;2.67;99.62
15750;BME280;7976;52.526;13.326;2023-12-07T07:21:06;101543.28;;;2.65;99.58
15750;BME280;7976;52.526;13.326;2023-12-07T07:23:35;101545.81;;;2.60;99.20
15750;BME280;7976;52.526;13.326;2023-12-07T07:26:02;101548.38;;;2.58;99.21
15750;BME280;7976;52.526;13.326;2023-12-07T07:28:29;101538.03;;;2.57;99.44
15750;BME280;7976;52.526;13.326;2023-12-07T07:30:56;101548.44;;;2.65;99.65
15750;BME280;7976;52.526;13.326;2023-12-07T07:33:23;101539.81;;;2.64;99.55
15750;BME280;7976;52.526;13.326;2023-12-07T07:35:51;101544.19;;;2.70;99.26
15750;BME280;7976;52.526;13.326;2023-12-07T07:38:18;101545.09;;;2.75;99.35
15750;BME280;7976;52.526;13.326;2023-12-07T07:40:45;101549.41;;;2.79;99.45
15750;BME280;7976;52.526;13.326;2023-12-07T07:43:14;101544.25;;;2.80;99.32
15750;BME280;7976;52.526;13.326;2023-12-07T07:45:44;101552.84;;;2.78;99.03
15750;BME280;7976;52.526;13.326;2023-12-07T07:48:14;101556.25;;;2.74;98.57
15750;BME280;7976;52.526;13.326;2023-12-07T07:50:43;101540.66;;;2.63;98.72
15750;BME280;7976;52.526;13.326;2023-12-07T07:53:14;101541.53;;;2.62;98.91
15750;BME280;7976;52.526;13.326;2023-12-07T07:55:42;101545.00;;;2.64;99.13
15750;BME280;7976;52.526;13.326;2023-12-07T07:58:09;101545.00;;;2.64;98.73
15750;BME280;7976;52.526;13.326;2023-12-07T08:00:36;101554.47;;;2.67;98.75
15750;BME280;7976;52.526;13.326;2023-12-07T08:03:03;101539.88;;;2.72;99.05
15750;BME280;7976;52.526;13.326;2023-12-07T08:05:30;101549.38;;;2.76;99.01
15750;BME280;7976;52.526;13.326;2023-12-07T08:07:57;101545.09;;;2.79;98.87
15750;BME280;7976;52.526;13.326;2023-12-07T08:10:25;101539.09;;;2.82;99.03
15750;BME280;7976;52.526;13.326;2023-12-07T08:12:52;101551.19;;;2.89;98.76
15750;BME280;7976;52.526;13.326;2023-12-07T08:15:19;101554.66;;;2.92;98.88
15750;BME280;7976;52.526;13.326;2023-12-07T08:17:47;101556.38;;;2.92;98.51
15750;BME280;7976;52.526;13.326;2023-12-07T08:20:16;101567.59;;;2.94;98.20
15750;BME280;7976;52.526;13.326;2023-12-07T08:22:43;101582.22;;;2.92;98.20
15750;BME280;7976;52.526;13.326;2023-12-07T08:25:11;101563.22;;;2.87;98.21
15750;BME280;7976;52.526;13.326;2023-12-07T08:27:40;101573.53;;;2.81;97.96
15750;BME280;7976;52.526;13.326;2023-12-07T08:30:07;101579.56;;;2.80;98.18
15750;BME280;7976;52.526;13.326;2023-12-07T08:32:35;101574.34;;;2.75;98.33
15750;BME280;7976;52.526;13.326;2023-12-07T08:35:03;101577.81;;;2.76;98.37
15750;BME280;7976;52.526;13.326;2023-12-07T08:37:32;101570.94;;;2.81;98.72
15750;BME280;7976;52.526;13.326;2023-12-07T08:39:59;101567.50;;;2.83;98.55
15750;BME280;7976;52.526;13.326;2023-12-07T08:42:26;101575.34;;;2.94;98.71
15750;BME280;7976;52.526;13.326;2023-12-07T08:44:56;101585.69;;;2.97;98.29
15750;BME280;7976;52.526;13.326;2023-12-07T08:47:23;101588.28;;;2.97;97.85
15750;BME280;7976;52.526;13.326;2023-12-07T08:49:53;101587.44;;;2.96;98.07
15750;BME280;7976;52.526;13.326;2023-12-07T08:52:20;101584.81;;;2.92;98.15
15750;BME280;7976;52.526;13.326;2023-12-07T08:54:47;101576.22;;;2.91;98.29
15750;BME280;7976;52.526;13.326;2023-12-07T08:57:14;101578.81;;;2.96;98.22
15750;BME280;7976;52.526;13.326;2023-12-07T08:59:41;101594.41;;;3.05;98.31
15750;BME280;7976;52.526;13.326;2023-12-07T09:02:09;101587.47;;;3.04;98.16
15750;BME280;7976;52.526;13.326;2023-12-07T09:04:38;101592.66;;;3.07;98.06
15750;BME280;7976;52.526;13.326;2023-12-07T09:07:05;101598.72;;;3.10;97.97
15750;BME280;7976;52.526;13.326;2023-12-07T09:09:32;101590.97;;;3.09;97.63
15750;BME280;7976;52.526;13.326;2023-12-07T09:12:01;101592.72;;;3.10;97.72
15750;BME280;7976;52.526;13.326;2023-12-07T09:14:29;101591.84;;;3.08;97.68
15750;BME280;7976;52.526;13.326;2023-12-07T09:16:56;101597.91;;;3.13;97.85
15750;BME280;7976;52.526;13.326;2023-12-07T09:19:24;101590.16;;;3.17;97.67
15750;BME280;7976;52.526;13.326;2023-12-07T09:21:51;101591.88;;;3.18;97.87
15750;BME280;7976;52.526;13.326;2023-12-07T09:24:19;101601.38;;;3.18;97.76
15750;BME280;7976;52.526;13.326;2023-12-07T09:26:51;101600.50;;;3.14;97.71
15750;BME280;7976;52.526;13.326;2023-12-07T09:29:18;101599.69;;;3.21;97.89
15750;BME280;7976;52.526;13.326;2023-12-07T09:31:45;101593.66;;;3.28;97.71
15750;BME280;7976;52.526;13.326;2023-12-07T09:34:12;101595.41;;;3.29;97.08
15750;BME280;7976;52.526;13.326;2023-12-07T09:36:45;101592.81;;;3.28;97.40
15750;BME280;7976;52.526;13.326;2023-12-07T09:39:12;101598.00;;;3.32;97.44
15750;BME280;7976;52.526;13.326;2023-12-07T09:41:41;101599.72;;;3.33;97.37
15750;BME280;7976;52.526;13.326;2023-12-07T09:44:13;101610.97;;;3.37;97.08
15750;BME280;7976;52.526;13.326;2023-12-07T09:46:40;101613.56;;;3.38;97.19
15750;BME280;7976;52.526;13.326;2023-12-07T09:49:07;101609.19;;;3.27;96.85
15750;BME280;7976;52.526;13.326;2023-12-07T09:51:38;101613.50;;;3.25;96.92
15750;BME280;7976;52.526;13.326;2023-12-07T09:54:07;101622.09;;;3.22;96.75
15750;BME280;7976;52.526;13.326;2023-12-07T09:56:35;101623.84;;;3.28;96.83
15750;BME280;7976;52.526;13.326;2023-12-07T09:59:04;101613.50;;;3.25;96.80
15750;BME280;7976;52.526;13.326;2023-12-07T10:01:31;101620.41;;;3.29;96.48
15750;BME280;7976;52.526;13.326;2023-12-07T10:04:18;101625.59;;;3.32;96.56
15750;BME280;7976;52.526;13.326;2023-12-07T10:06:49;101613.53;;;3.32;96.52
15750;BME280;7976;52.526;13.326;2023-12-07T10:09:18;101607.50;;;3.32;96.40
15750;BME280;7976;52.526;13.326;2023-12-07T10:11:47;101611.84;;;3.36;96.42
15750;BME280;7976;52.526;13.326;2023-12-07T10:14:17;101616.19;;;3.40;96.31
15750;BME280;7976;52.526;13.326;2023-12-07T10:16:53;101608.44;;;3.43;96.34
15750;BME280;7976;52.526;13.326;2023-12-07T10:19:22;101604.16;;;3.45;96.25
15750;BME280;7976;52.526;13.326;2023-12-07T10:21:49;101599.81;;;3.47;96.13
15750;BME280;7976;52.526;13.326;2023-12-07T10:24:21;101592.94;;;3.52;96.19
15750;BME280;7976;52.526;13.326;2023-12-07T10:26:50;101599.88;;;3.56;96.07
15750;BME280;7976;52.526;13.326;2023-12-07T10:29:18;101599.88;;;3.57;95.89
15750;BME280;7976;52.526;13.326;2023-12-07T10:31:46;101603.34;;;3.59;95.94
15750;BME280;7976;52.526;13.326;2023-12-07T10:34:17;101611.06;;;3.53;95.62
15750;BME280;7976;52.526;13.326;2023-12-07T10:36:46;101604.16;;;3.45;95.66
15750;BME280;7976;52.526;13.326;2023-12-07T10:39:13;101601.50;;;3.39;95.57
15750;BME280;7976;52.526;13.326;2023-12-07T10:41:43;101603.22;;;3.38;95.81
15750;BME280;7976;52.526;13.326;2023-12-07T10:44:14;101593.81;;;3.46;96.01
15750;BME280;7976;52.526;13.326;2023-12-07T10:46:43;101599.88;;;3.53;95.99
15750;BME280;7976;52.526;13.326;2023-12-07T10:49:19;101601.59;;;3.54;95.85
15750;BME280;7976;52.526;13.326;2023-12-07T10:51:56;101602.44;;;3.50;95.63
15750;BME280;7976;52.526;13.326;2023-12-07T10:54:37;101605.84;;;3.44;95.56
15750;BME280;7976;52.526;13.326;2023-12-07T10:57:11;101596.38;;;3.45;95.61
15750;BME280;7976;52.526;13.326;2023-12-07T10:59:42;101598.13;;;3.52;95.81
15750;BME280;7976;52.526;13.326;2023-12-07T11:02:12;101597.28;;;3.56;95.65
15750;BME280;7976;52.526;13.326;2023-12-07T11:04:42;101599.88;;;3.59;95.58
15750;BME280;7976;52.526;13.326;2023-12-07T11:07:16;101601.63;;;3.61;95.61
15750;BME280;7976;52.526;13.326;2023-12-07T11:09:53;101598.16;;;3.58;95.41
15750;BME280;7976;52.526;13.326;2023-12-07T11:12:36;101598.16;;;3.55;95.28
15750;BME280;7976;52.526;13.326;2023-12-07T11:15:07;101586.94;;;3.54;95.43
15750;BME280;7976;52.526;13.326;2023-12-07T11:17:49;101591.28;;;3.60;95.49
15750;BME280;7976;52.526;13.326;2023-12-07T11:20:20;101585.25;;;3.62;95.45
15750;BME280;7976;52.526;13.326;2023-12-07T11:22:47;101582.66;;;3.61;95.30
15750;BME280;7976;52.526;13.326;2023-12-07T11:25:15;101579.19;;;3.62;95.29
15750;BME280;7976;52.526;13.326;2023-12-07T11:27:45;101574.03;;;3.62;94.96
15750;BME280;7976;52.526;13.326;2023-12-07T11:30:14;101578.31;;;3.57;94.91
15750;BME280;7976;52.526;13.326;2023-12-07T11:32:43;101578.31;;;3.58;94.97
15750;BME280;7976;52.526;13.326;2023-12-07T11:35:14;101565.38;;;3.57;95.04
15750;BME280;7976;52.526;13.326;2023-12-07T11:38:05;101581.75;;;3.53;95.02
15750;BME280;7976;52.526;13.326;2023-12-07T11:40:35;101576.53;;;3.47;94.83
15750;BME280;7976;52.526;13.326;2023-12-07T11:43:04;101577.38;;;3.40;94.70
15750;BME280;7976;52.526;13.326;2023-12-07T11:45:47;101578.22;;;3.33;94.88
15750;BME280;7976;52.526;13.326;2023-12-07T11:48:16;101578.22;;;3.33;95.18
15750;BME280;7976;52.526;13.326;2023-12-07T11:50:59;101577.34;;;3.32;95.04
15750;BME280;7976;52.526;13.326;2023-12-07T11:53:27;101576.44;;;3.27;94.94
15750;BME280;7976;52.526;13.326;2023-12-07T11:55:56;101572.16;;;3.29;95.31
15750;BME280;7976;52.526;13.326;2023-12-07T11:58:26;101573.84;;;3.29;95.18
15750;BME280;7976;52.526;13.326;2023-12-07T12:00:54;101577.31;;;3.25;95.08
15750;BME280;7976;52.526;13.326;2023-12-07T12:03:22;101570.38;;;3.21;95.28
15750;BME280;7976;52.526;13.326;2023-12-07T12:05:50;101569.53;;;3.25;95.35
15750;BME280;7976;52.526;13.326;2023-12-07T12:08:17;101570.44;;;3.30;95.26
15750;BME280;7976;52.526;13.326;2023-12-07T12:10:46;101571.28;;;3.33;95.36
15750;BME280;7976;52.526;13.326;2023-12-07T12:13:13;101560.13;;;3.36;95.28
15750;BME280;7976;52.526;13.326;2023-12-07T12:15:42;101566.16;;;3.35;95.17
15750;BME280;7976;52.526;13.326;2023-12-07T12:18:09;101566.16;;;3.35;95.40
15750;BME280;7976;52.526;13.326;2023-12-07T12:20:38;101567.88;;;3.34;95.20
15750;BME280;7976;52.526;13.326;2023-12-07T12:23:05;101561.81;;;3.37;95.25
15750;BME280;7976;52.526;13.326;2023-12-07T12:25:33;101567.00;;;3.35;95.30
15750;BME280;7976;52.526;13.326;2023-12-07T12:28:04;101567.00;;;3.34;95.29
15750;BME280;7976;52.526;13.326;2023-12-07T12:30:33;101567.00;;;3.37;95.56
15750;BME280;7976;52.526;13.326;2023-12-07T12:33:02;101577.38;;;3.40;95.47
15750;BME280;7976;52.526;13.326;2023-12-07T12:35:29;101579.94;;;3.38;95.46
15750;BME280;7976;52.526;13.326;2023-12-07T12:37:56;101575.63;;;3.36;95.56
15750;BME280;7976;52.526;13.326;2023-12-07T12:40:23;101577.34;;;3.37;95.73
15750;BME280;7976;52.526;13.326;2023-12-07T12:42:54;101573.03;;;3.36;96.09
15750;BME280;7976;52.526;13.326;2023-12-07T12:45:21;101576.53;;;3.41;95.77
15750;BME280;7976;52.526;13.326;2023-12-07T12:47:48;101564.47;;;3.43;95.61
15750;BME280;7976;52.526;13.326;2023-12-07T12:50:36;101567.06;;;3.44;95.76
15750;BME280;7976;52.526;13.326;2023-12-07T12:53:09;101567.94;;;3.51;95.99
15750;BME280;7976;52.526;13.326;2023-12-07T12:55:37;101566.25;;;3.54;95.93
15750;BME280;7976;52.526;13.326;2023-12-07T12:58:07;101567.13;;;3.58;95.96
15750;BME280;7976;52.526;13.326;2023-12-07T13:00:37;101568.84;;;3.60;95.77
15750;BME280;7976;52.526;13.326;2023-12-07T13:03:06;101561.97;;;3.64;96.03